createdAt,value
2019-05-12T00:00:39.059Z,1020.71
2019-05-12T00:01:38.784Z,1020.71
2019-05-12T00:02:39.480Z,1020.74
2019-05-12T00:03:37.788Z,1020.76
2019-05-12T00:04:38.455Z,1020.74
2019-05-12T00:05:38.330Z,1020.78
2019-05-12T00:06:38.654Z,1020.76
2019-05-12T00:07:38.158Z,1020.77
2019-05-12T00:08:38.112Z,1020.81
2019-05-12T00:09:38.689Z,1020.81
2019-05-12T00:10:38.524Z,1020.82
2019-05-12T00:11:37.931Z,1020.80
2019-05-12T00:12:38.544Z,1020.82
2019-05-12T00:13:38.316Z,1020.89
2019-05-12T00:14:38.120Z,1020.88
2019-05-12T00:15:38.410Z,1020.90
2019-05-12T00:16:38.424Z,1020.93
2019-05-12T00:17:38.557Z,1020.93
2019-05-12T00:18:37.810Z,1020.92
2019-05-12T00:19:37.762Z,1020.89
2019-05-12T00:20:38.489Z,1020.95
2019-05-12T00:21:37.682Z,1020.88
2019-05-12T00:22:38.121Z,1020.89
2019-05-12T00:23:38.153Z,1020.89
2019-05-12T00:24:38.223Z,1020.92
2019-05-12T00:25:38.579Z,1020.91
2019-05-12T00:26:38.232Z,1020.90
2019-05-12T00:27:38.603Z,1020.97
2019-05-12T00:28:37.685Z,1020.96
2019-05-12T00:29:37.818Z,1020.93
2019-05-12T00:30:38.539Z,1020.94
2019-05-12T00:31:38.218Z,1020.93
2019-05-12T00:32:38.440Z,1020.96
2019-05-12T00:33:38.455Z,1020.99
2019-05-12T00:34:38.451Z,1020.97
2019-05-12T00:35:38.040Z,1021.03
2019-05-12T00:36:37.928Z,1021.04
2019-05-12T00:37:38.210Z,1021.05
2019-05-12T00:38:38.062Z,1021.03
2019-05-12T00:39:38.132Z,1021.07
2019-05-12T00:40:38.825Z,1021.07
2019-05-12T00:41:36.047Z,1021.11
2019-05-12T00:42:38.168Z,1021.11
2019-05-12T00:43:38.132Z,1021.13
2019-05-12T00:44:36.010Z,1021.12
2019-05-12T00:45:38.294Z,1021.09
2019-05-12T00:46:38.359Z,1021.13
2019-05-12T00:47:35.976Z,1021.11
2019-05-12T00:48:37.594Z,1021.10
2019-05-12T00:49:37.875Z,1021.09
2019-05-12T00:50:37.998Z,1021.07
2019-05-12T00:51:38.144Z,1021.10
2019-05-12T00:52:37.970Z,1021.12
2019-05-12T00:53:40.134Z,1021.13
2019-05-12T00:54:37.595Z,1021.13
2019-05-12T00:55:38.014Z,1021.13
2019-05-12T00:56:35.893Z,1021.15
2019-05-12T00:57:38.097Z,1021.17
2019-05-12T00:58:38.121Z,1021.14
2019-05-12T00:59:38.148Z,1021.12
2019-05-12T01:00:35.832Z,1021.21
2019-05-12T01:01:37.885Z,1021.16
2019-05-12T01:02:37.975Z,1021.18
2019-05-12T01:03:38.062Z,1021.17
2019-05-12T01:04:38.017Z,1021.22
2019-05-12T01:05:38.031Z,1021.16
2019-05-12T01:06:38.475Z,1021.17
2019-05-12T01:07:38.045Z,1021.20
2019-05-12T01:08:35.748Z,1021.18
2019-05-12T01:09:35.733Z,1021.22
2019-05-12T01:10:35.728Z,1021.27
2019-05-12T01:11:37.790Z,1021.29
2019-05-12T01:12:37.647Z,1021.33
2019-05-12T01:13:38.152Z,1021.39
2019-05-12T01:14:35.683Z,1021.36
2019-05-12T01:15:37.666Z,1021.39
2019-05-12T01:16:38.324Z,1021.46
2019-05-12T01:17:35.647Z,1021.47
2019-05-12T01:18:35.635Z,1021.45
2019-05-12T01:19:37.448Z,1021.52
2019-05-12T01:20:35.611Z,1021.46
2019-05-12T01:21:37.743Z,1021.52
2019-05-12T01:22:38.027Z,1021.54
2019-05-12T01:23:35.596Z,1021.53
2019-05-12T01:24:35.567Z,1021.54
2019-05-12T01:25:35.570Z,1021.58
2019-05-12T01:26:35.546Z,1021.54
2019-05-12T01:27:37.879Z,1021.55
2019-05-12T01:28:35.550Z,1021.55
2019-05-12T01:29:35.515Z,1021.56
2019-05-12T01:30:35.500Z,1021.59
2019-05-12T01:31:37.377Z,1021.59
2019-05-12T01:32:38.075Z,1021.65
2019-05-12T01:33:35.487Z,1021.65
2019-05-12T01:34:35.457Z,1021.69
2019-05-12T01:35:35.446Z,1021.72
2019-05-12T01:36:37.935Z,1021.69
2019-05-12T01:37:35.456Z,1021.73
2019-05-12T01:38:37.785Z,1021.76
2019-05-12T01:39:35.432Z,1021.77
2019-05-12T01:40:35.389Z,1021.73
2019-05-12T01:41:35.378Z,1021.76
2019-05-12T01:42:37.989Z,1021.73
2019-05-12T01:43:35.371Z,1021.74
2019-05-12T01:44:35.382Z,1021.74
2019-05-12T01:45:37.736Z,1021.80
2019-05-12T01:46:38.129Z,1021.77
2019-05-12T01:47:35.333Z,1021.78
2019-05-12T01:48:37.642Z,1021.82
2019-05-12T01:49:35.327Z,1021.83
2019-05-12T01:50:35.299Z,1021.82
2019-05-12T01:51:35.269Z,1021.87
2019-05-12T01:52:35.282Z,1021.86
2019-05-12T01:53:37.630Z,1021.86
2019-05-12T01:54:35.241Z,1021.89
2019-05-12T01:55:35.230Z,1021.89
2019-05-12T01:56:35.230Z,1021.91
2019-05-12T01:57:35.240Z,1021.89
2019-05-12T01:58:35.250Z,1021.93
2019-05-12T01:59:35.178Z,1021.94
2019-05-12T02:00:35.175Z,1021.91
2019-05-12T02:01:35.205Z,1021.95
2019-05-12T02:02:35.155Z,1021.97
2019-05-12T02:03:37.528Z,1022.03
2019-05-12T02:04:35.137Z,1022.03
2019-05-12T02:05:35.114Z,1022.05
2019-05-12T02:06:35.127Z,1022.09
2019-05-12T02:07:35.129Z,1022.15
2019-05-12T02:08:35.087Z,1022.14
2019-05-12T02:09:35.073Z,1022.14
2019-05-12T02:10:35.075Z,1022.18
2019-05-12T02:11:35.048Z,1022.20
2019-05-12T02:12:35.041Z,1022.20
2019-05-12T02:13:35.068Z,1022.22
2019-05-12T02:14:35.018Z,1022.26
2019-05-12T02:15:35.033Z,1022.28
2019-05-12T02:16:34.995Z,1022.29
2019-05-12T02:17:35.012Z,1022.33
2019-05-12T02:18:34.968Z,1022.31
2019-05-12T02:19:34.975Z,1022.26
2019-05-12T02:20:34.961Z,1022.35
2019-05-12T02:21:34.947Z,1022.37
2019-05-12T02:22:34.927Z,1022.37
2019-05-12T02:23:34.913Z,1022.36
2019-05-12T02:24:34.932Z,1022.38
2019-05-12T02:25:34.896Z,1022.40
2019-05-12T02:26:34.902Z,1022.41
2019-05-12T02:27:34.885Z,1022.40
2019-05-12T02:28:34.869Z,1022.40
2019-05-12T02:29:34.852Z,1022.42
2019-05-12T02:30:34.850Z,1022.47
2019-05-12T02:31:34.857Z,1022.46
2019-05-12T02:32:47.244Z,1022.48
2019-05-12T02:33:35.805Z,1022.54
2019-05-12T02:34:35.119Z,1022.51
2019-05-12T02:35:35.570Z,1022.57
2019-05-12T02:36:34.770Z,1022.55
2019-05-12T02:37:35.691Z,1022.56
2019-05-12T02:38:34.754Z,1022.57
2019-05-12T02:39:35.374Z,1022.52
2019-05-12T02:40:35.238Z,1022.56
2019-05-12T02:41:34.855Z,1022.56
2019-05-12T02:42:35.011Z,1022.58
2019-05-12T02:43:34.929Z,1022.59
2019-05-12T02:44:34.834Z,1022.58
2019-05-12T02:45:35.903Z,1022.57
2019-05-12T02:46:35.088Z,1022.57
2019-05-12T02:47:34.875Z,1022.59
2019-05-12T02:48:35.599Z,1022.56
2019-05-12T02:49:34.990Z,1022.58
2019-05-12T02:50:35.673Z,1022.56
2019-05-12T02:51:35.266Z,1022.58
2019-05-12T02:52:34.861Z,1022.63
2019-05-12T02:53:35.251Z,1022.63
2019-05-12T02:54:50.765Z,1022.65
2019-05-12T02:55:35.937Z,1022.66
2019-05-12T02:56:35.706Z,1022.66
2019-05-12T02:57:34.570Z,1022.70
2019-05-12T02:58:34.903Z,1022.70
2019-05-12T02:59:34.859Z,1022.75
2019-05-12T03:00:35.419Z,1022.77
2019-05-12T03:01:34.814Z,1022.78
2019-05-12T03:02:34.828Z,1022.75
2019-05-12T03:03:35.234Z,1022.75
2019-05-12T03:04:35.011Z,1022.79
2019-05-12T03:05:35.144Z,1022.81
2019-05-12T03:06:36.111Z,1022.79
2019-05-12T03:07:34.738Z,1022.89
2019-05-12T03:08:35.065Z,1022.87
2019-05-12T03:09:35.369Z,1022.91
2019-05-12T03:10:35.411Z,1022.92
2019-05-12T03:11:35.494Z,1023.00
2019-05-12T03:12:34.614Z,1022.97
2019-05-12T03:13:34.739Z,1023.00
2019-05-12T03:14:40.259Z,1023.01
2019-05-12T03:15:37.206Z,1023.04
2019-05-12T03:16:35.183Z,1023.04
2019-05-12T03:17:35.601Z,1023.02
2019-05-12T03:18:34.957Z,1023.06
2019-05-12T03:19:34.614Z,1023.08
2019-05-12T03:20:35.354Z,1023.07
2019-05-12T03:21:35.269Z,1023.05
2019-05-12T03:22:35.234Z,1023.07
2019-05-12T03:23:35.248Z,1023.04
2019-05-12T03:24:34.351Z,1023.07
2019-05-12T03:25:35.362Z,1023.08
2019-05-12T03:26:34.783Z,1023.05
2019-05-12T03:27:35.096Z,1023.10
2019-05-12T03:28:35.544Z,1023.14
2019-05-12T03:29:34.503Z,1023.18
2019-05-12T03:30:38.427Z,1023.20
2019-05-12T03:31:39.674Z,1023.20
2019-05-12T03:32:37.865Z,1023.19
2019-05-12T03:33:42.010Z,1023.18
2019-05-12T03:34:38.114Z,1023.22
2019-05-12T03:35:41.697Z,1023.19
2019-05-12T03:36:42.275Z,1023.23
2019-05-12T03:37:35.424Z,1023.24
2019-05-12T03:38:35.952Z,1023.25
2019-05-12T03:39:34.440Z,1023.36
2019-05-12T03:40:37.599Z,1023.34
2019-05-12T03:41:34.867Z,1023.33
2019-05-12T03:42:35.464Z,1023.37
2019-05-12T03:43:35.031Z,1023.39
2019-05-12T03:44:35.206Z,1023.42
2019-05-12T03:45:35.977Z,1023.45
2019-05-12T03:46:35.247Z,1023.49
2019-05-12T03:47:35.692Z,1023.48
2019-05-12T03:48:34.931Z,1023.48
2019-05-12T03:49:34.818Z,1023.47
2019-05-12T03:50:35.401Z,1023.49
2019-05-12T03:51:34.989Z,1023.50
2019-05-12T03:52:34.905Z,1023.48
2019-05-12T03:53:35.170Z,1023.51
2019-05-12T03:54:34.939Z,1023.53
2019-05-12T03:55:38.145Z,1023.49
2019-05-12T03:56:35.277Z,1023.48
2019-05-12T03:57:34.706Z,1023.51
2019-05-12T03:58:34.799Z,1023.52
2019-05-12T03:59:34.761Z,1023.50
2019-05-12T04:00:35.852Z,1023.54
2019-05-12T04:01:36.410Z,1023.57
2019-05-12T04:02:34.208Z,1023.60
2019-05-12T04:03:34.683Z,1023.59
2019-05-12T04:04:34.763Z,1023.61
2019-05-12T04:05:35.000Z,1023.62
2019-05-12T04:06:34.573Z,1023.64
2019-05-12T04:07:34.660Z,1023.61
2019-05-12T04:08:34.674Z,1023.64
2019-05-12T04:09:34.799Z,1023.63
2019-05-12T04:10:35.330Z,1023.65
2019-05-12T04:11:35.657Z,1023.65
2019-05-12T04:12:34.818Z,1023.69
2019-05-12T04:13:34.283Z,1023.72
2019-05-12T04:14:34.597Z,1023.77
2019-05-12T04:15:34.941Z,1023.74
2019-05-12T04:16:36.315Z,1023.74
2019-05-12T04:17:34.952Z,1023.78
2019-05-12T04:18:34.839Z,1023.80
2019-05-12T04:19:34.391Z,1023.84
2019-05-12T04:20:35.642Z,1023.85
2019-05-12T04:21:34.994Z,1023.86
2019-05-12T04:22:35.116Z,1023.89
2019-05-12T04:23:34.820Z,1023.89
2019-05-12T04:24:35.880Z,1023.93
2019-05-12T04:25:47.841Z,1023.95
2019-05-12T04:26:36.253Z,1023.99
2019-05-12T04:27:34.846Z,1024.01
2019-05-12T04:28:35.122Z,1024.02
2019-05-12T04:29:34.885Z,1024.06
2019-05-12T04:30:35.706Z,1024.07
2019-05-12T04:31:34.815Z,1024.10
2019-05-12T04:32:35.720Z,1024.10
2019-05-12T04:33:34.659Z,1024.10
2019-05-12T04:34:34.271Z,1024.16
2019-05-12T04:35:34.908Z,1024.18
2019-05-12T04:36:35.539Z,1024.18
2019-05-12T04:37:35.245Z,1024.21
2019-05-12T04:38:35.554Z,1024.19
2019-05-12T04:39:34.134Z,1024.23
2019-05-12T04:40:36.044Z,1024.23
2019-05-12T04:41:35.409Z,1024.26
2019-05-12T04:42:34.939Z,1024.31
2019-05-12T04:43:35.270Z,1024.32
2019-05-12T04:44:34.696Z,1024.33
2019-05-12T04:45:34.596Z,1024.29
2019-05-12T04:46:34.667Z,1024.32
2019-05-12T04:47:34.948Z,1024.34
2019-05-12T04:48:35.795Z,1024.33
2019-05-12T04:49:34.635Z,1024.41
2019-05-12T04:50:35.377Z,1024.41
2019-05-12T04:51:34.884Z,1024.48
2019-05-12T04:52:35.186Z,1024.44
2019-05-12T04:53:35.242Z,1024.50
2019-05-12T04:54:35.555Z,1024.46
2019-05-12T04:55:35.545Z,1024.52
2019-05-12T04:56:35.831Z,1024.50
2019-05-12T04:57:34.702Z,1024.52
2019-05-12T04:58:35.027Z,1024.54
2019-05-12T04:59:34.461Z,1024.48
2019-05-12T05:00:34.809Z,1024.55
2019-05-12T05:01:34.702Z,1024.57
2019-05-12T05:02:36.447Z,1024.56
2019-05-12T05:03:34.951Z,1024.57
2019-05-12T05:04:34.689Z,1024.64
2019-05-12T05:05:35.360Z,1024.65
2019-05-12T05:06:34.238Z,1024.65
2019-05-12T05:07:35.726Z,1024.69
2019-05-12T05:08:34.821Z,1024.74
2019-05-12T05:09:34.991Z,1024.71
2019-05-12T05:10:34.238Z,1024.81
2019-05-12T05:11:34.552Z,1024.75
2019-05-12T05:12:34.476Z,1024.80
2019-05-12T05:13:36.832Z,1024.77
2019-05-12T05:14:34.192Z,1024.76
2019-05-12T05:15:34.735Z,1024.80
2019-05-12T05:16:34.615Z,1024.81
2019-05-12T05:17:34.740Z,1024.81
2019-05-12T05:18:34.445Z,1024.82
2019-05-12T05:19:33.763Z,1024.84
2019-05-12T05:20:34.442Z,1024.81
2019-05-12T05:21:34.541Z,1024.87
2019-05-12T05:22:33.392Z,1024.82
2019-05-12T05:23:33.507Z,1024.85
2019-05-12T05:24:33.905Z,1024.86
2019-05-12T05:25:34.081Z,1024.89
2019-05-12T05:26:37.029Z,1024.83
2019-05-12T05:27:34.092Z,1024.86
2019-05-12T05:28:33.987Z,1024.89
2019-05-12T05:29:33.598Z,1024.90
2019-05-12T05:30:33.967Z,1024.89
2019-05-12T05:31:33.688Z,1024.92
2019-05-12T05:32:33.928Z,1024.92
2019-05-12T05:33:34.051Z,1024.96
2019-05-12T05:34:34.290Z,1024.99
2019-05-12T05:35:37.201Z,1025.06
2019-05-12T05:36:34.599Z,1025.05
2019-05-12T05:37:37.065Z,1025.08
2019-05-12T05:38:34.300Z,1025.05
2019-05-12T05:39:35.605Z,1025.01
2019-05-12T05:40:35.721Z,1025.13
2019-05-12T05:41:34.543Z,1025.13
2019-05-12T05:42:35.440Z,1025.13
2019-05-12T05:43:33.336Z,1025.11
2019-05-12T05:44:36.339Z,1025.16
2019-05-12T05:45:34.985Z,1025.15
2019-05-12T05:46:33.691Z,1025.15
2019-05-12T05:47:33.613Z,1025.19
2019-05-12T05:48:35.118Z,1025.17
2019-05-12T05:49:34.207Z,1025.24
2019-05-12T05:50:34.292Z,1025.24
2019-05-12T05:51:33.481Z,1025.29
2019-05-12T05:52:37.123Z,1025.31
2019-05-12T05:53:33.657Z,1025.35
2019-05-12T05:54:35.951Z,1025.37
2019-05-12T05:55:34.269Z,1025.39
2019-05-12T05:56:42.124Z,1025.35
2019-05-12T05:57:33.736Z,1025.36
2019-05-12T05:58:33.936Z,1025.36
2019-05-12T05:59:36.543Z,1025.37
2019-05-12T06:00:35.270Z,1025.37
2019-05-12T06:01:34.829Z,1025.40
2019-05-12T06:02:39.702Z,1025.38
2019-05-12T06:03:33.952Z,1025.46
2019-05-12T06:04:34.203Z,1025.42
2019-05-12T06:05:34.618Z,1025.48
2019-05-12T06:06:34.205Z,1025.47
2019-05-12T06:07:37.414Z,1025.51
2019-05-12T06:08:33.844Z,1025.48
2019-05-12T06:09:33.905Z,1025.52
2019-05-12T06:10:36.205Z,1025.49
2019-05-12T06:11:34.572Z,1025.54
2019-05-12T06:12:33.450Z,1025.49
2019-05-12T06:13:34.474Z,1025.47
2019-05-12T06:14:34.244Z,1025.48
2019-05-12T06:15:35.889Z,1025.56
2019-05-12T06:16:34.064Z,1025.55
2019-05-12T06:17:34.129Z,1025.62
2019-05-12T06:18:33.477Z,1025.69
2019-05-12T06:19:34.223Z,1025.73
2019-05-12T06:20:37.424Z,1025.70
2019-05-12T06:21:36.399Z,1025.65
2019-05-12T06:22:34.321Z,1025.68
2019-05-12T06:23:34.823Z,1025.74
2019-05-12T06:24:33.519Z,1025.69
2019-05-12T06:25:44.615Z,1025.59
2019-05-12T06:26:35.670Z,1025.63
2019-05-12T06:27:33.601Z,1025.65
2019-05-12T06:28:39.432Z,1025.65
2019-05-12T06:29:33.398Z,1025.69
2019-05-12T06:30:37.555Z,1025.67
2019-05-12T06:31:33.539Z,1025.70
2019-05-12T06:32:33.643Z,1025.77
2019-05-12T06:33:36.124Z,1025.79
2019-05-12T06:34:34.181Z,1025.86
2019-05-12T06:35:37.474Z,1025.75
2019-05-12T06:36:33.971Z,1025.80
2019-05-12T06:37:33.867Z,1025.77
2019-05-12T06:38:38.737Z,1025.84
2019-05-12T06:39:34.368Z,1025.93
2019-05-12T06:40:40.400Z,1025.86
2019-05-12T06:41:33.649Z,1025.83
2019-05-12T06:42:34.131Z,1025.89
2019-05-12T06:43:36.801Z,1025.85
2019-05-12T06:44:33.534Z,1025.84
2019-05-12T06:45:36.555Z,1025.85
2019-05-12T06:46:34.252Z,1025.90
2019-05-12T06:47:34.126Z,1025.92
2019-05-12T06:48:33.237Z,1025.99
2019-05-12T06:49:33.701Z,1025.97
2019-05-12T06:50:37.083Z,1026.01
2019-05-12T06:51:33.885Z,1026.03
2019-05-12T06:52:33.771Z,1026.04
2019-05-12T06:53:33.611Z,1026.03
2019-05-12T06:54:33.545Z,1026.08
2019-05-12T06:55:34.322Z,1026.09
2019-05-12T06:56:34.217Z,1026.10
2019-05-12T06:57:34.134Z,1026.13
2019-05-12T06:58:34.377Z,1026.11
2019-05-12T06:59:33.854Z,1026.11
2019-05-12T07:00:32.636Z,1026.13
2019-05-12T07:01:33.449Z,1026.14
2019-05-12T07:02:36.539Z,1026.09
2019-05-12T07:03:37.038Z,1026.09
2019-05-12T07:04:33.948Z,1026.09
2019-05-12T07:05:35.942Z,1026.12
2019-05-12T07:06:33.885Z,1026.09
2019-05-12T07:07:35.779Z,1026.12
2019-05-12T07:08:38.306Z,1026.15
2019-05-12T07:09:35.334Z,1026.20
2019-05-12T07:10:42.944Z,1026.21
2019-05-12T07:11:42.510Z,1026.26
2019-05-12T07:12:39.645Z,1026.21
2019-05-12T07:13:34.225Z,1026.26
2019-05-12T07:14:31.693Z,1026.25
2019-05-12T07:15:35.729Z,1026.23
2019-05-12T07:16:34.114Z,1026.24
2019-05-12T07:17:37.203Z,1026.17
2019-05-12T07:18:36.967Z,1026.15
2019-05-12T07:19:33.761Z,1026.12
2019-05-12T07:20:37.141Z,1026.10
2019-05-12T07:21:33.502Z,1026.05
2019-05-12T07:22:43.837Z,1026.05
2019-05-12T07:23:33.709Z,1026.17
2019-05-12T07:24:34.047Z,1026.14
2019-05-12T07:25:36.255Z,1026.24
2019-05-12T07:26:33.931Z,1026.23
2019-05-12T07:27:36.571Z,1026.21
2019-05-12T07:28:36.291Z,1026.23
2019-05-12T07:29:34.258Z,1026.24
2019-05-12T07:30:34.481Z,1026.27
2019-05-12T07:31:33.602Z,1026.22
2019-05-12T07:32:34.221Z,1026.28
2019-05-12T07:33:35.189Z,1026.30
2019-05-12T07:34:33.403Z,1026.27
2019-05-12T07:35:33.683Z,1026.24
2019-05-12T07:36:33.394Z,1026.24
2019-05-12T07:37:31.438Z,1026.29
2019-05-12T07:38:31.435Z,1026.29
2019-05-12T07:39:31.418Z,1026.33
2019-05-12T07:40:34.728Z,1026.30
2019-05-12T07:41:34.231Z,1026.30
2019-05-12T07:42:39.026Z,1026.29
2019-05-12T07:43:33.787Z,1026.33
2019-05-12T07:44:39.505Z,1026.34
2019-05-12T07:45:34.002Z,1026.36
2019-05-12T07:46:31.360Z,1026.35
2019-05-12T07:47:33.109Z,1026.38
2019-05-12T07:48:33.368Z,1026.34
2019-05-12T07:49:35.197Z,1026.43
2019-05-12T07:50:34.583Z,1026.41
2019-05-12T07:51:38.296Z,1026.46
2019-05-12T07:52:33.747Z,1026.43
2019-05-12T07:53:31.292Z,1026.44
2019-05-12T07:54:37.295Z,1026.44
2019-05-12T07:55:34.206Z,1026.44
2019-05-12T07:56:33.503Z,1026.40
2019-05-12T07:57:34.502Z,1026.39
2019-05-12T07:58:33.312Z,1026.37
2019-05-12T07:59:35.699Z,1026.38
2019-05-12T08:00:33.907Z,1026.44
2019-05-12T08:01:38.127Z,1026.41
2019-05-12T08:02:35.535Z,1026.45
2019-05-12T08:03:31.146Z,1026.47
2019-05-12T08:04:39.611Z,1026.41
2019-05-12T08:05:33.814Z,1026.45
2019-05-12T08:06:34.719Z,1026.42
2019-05-12T08:07:33.748Z,1026.43
2019-05-12T08:08:31.095Z,1026.46
2019-05-12T08:09:33.155Z,1026.48
2019-05-12T08:10:34.151Z,1026.44
2019-05-12T08:11:36.760Z,1026.44
2019-05-12T08:12:33.972Z,1026.44
2019-05-12T08:13:36.340Z,1026.52
2019-05-12T08:14:33.175Z,1026.55
2019-05-12T08:15:33.718Z,1026.45
2019-05-12T08:16:36.228Z,1026.46
2019-05-12T08:17:33.669Z,1026.55
2019-05-12T08:18:38.991Z,1026.52
2019-05-12T08:19:33.780Z,1026.53
2019-05-12T08:20:30.957Z,1026.53
2019-05-12T08:21:37.005Z,1026.58
2019-05-12T08:22:31.957Z,1026.55
2019-05-12T08:23:30.965Z,1026.57
2019-05-12T08:24:36.859Z,1026.61
2019-05-12T08:25:34.143Z,1026.66
2019-05-12T08:26:33.331Z,1026.64
2019-05-12T08:27:30.902Z,1026.52
2019-05-12T08:28:35.861Z,1026.60
2019-05-12T08:29:34.140Z,1026.63
2019-05-12T08:30:30.848Z,1026.62
2019-05-12T08:31:33.262Z,1026.63
2019-05-12T08:32:33.813Z,1026.62
2019-05-12T08:33:30.844Z,1026.66
2019-05-12T08:34:30.822Z,1026.67
2019-05-12T08:35:35.076Z,1026.67
2019-05-12T08:36:33.476Z,1026.65
2019-05-12T08:37:30.792Z,1026.71
2019-05-12T08:38:30.785Z,1026.67
2019-05-12T08:39:30.746Z,1026.67
2019-05-12T08:40:30.753Z,1026.65
2019-05-12T08:41:30.724Z,1026.71
2019-05-12T08:42:30.723Z,1026.72
2019-05-12T08:43:30.700Z,1026.70
2019-05-12T08:44:33.892Z,1026.77
2019-05-12T08:45:37.012Z,1026.77
2019-05-12T08:46:31.681Z,1026.75
2019-05-12T08:47:35.482Z,1026.79
2019-05-12T08:48:34.142Z,1026.83
2019-05-12T08:49:34.111Z,1026.82
2019-05-12T08:50:33.798Z,1026.76
2019-05-12T08:51:30.624Z,1026.80
2019-05-12T08:52:36.292Z,1026.77
2019-05-12T08:53:33.665Z,1026.78
2019-05-12T08:54:30.586Z,1026.72
2019-05-12T08:55:31.453Z,1026.78
2019-05-12T08:56:30.592Z,1026.77
2019-05-12T08:57:34.932Z,1026.80
2019-05-12T08:58:46.543Z,1026.78
2019-05-12T08:59:31.537Z,1026.76
2019-05-12T09:00:30.513Z,1026.74
2019-05-12T09:01:30.937Z,1026.78
2019-05-12T09:02:30.638Z,1026.75
2019-05-12T09:03:30.715Z,1026.84
2019-05-12T09:04:30.486Z,1026.84
2019-05-12T09:05:34.637Z,1026.86
2019-05-12T09:06:31.457Z,1026.82
2019-05-12T09:07:34.986Z,1026.89
2019-05-12T09:08:37.978Z,1026.82
2019-05-12T09:09:33.621Z,1026.89
2019-05-12T09:10:30.414Z,1026.84
2019-05-12T09:11:30.397Z,1026.78
2019-05-12T09:12:30.381Z,1026.77
2019-05-12T09:13:30.368Z,1026.82
2019-05-12T09:14:35.547Z,1026.85
2019-05-12T09:15:31.344Z,1026.84
2019-05-12T09:16:30.336Z,1026.92
2019-05-12T09:17:30.322Z,1026.90
2019-05-12T09:18:35.115Z,1026.91
2019-05-12T09:19:33.222Z,1026.91
2019-05-12T09:20:30.292Z,1026.96
2019-05-12T09:21:33.873Z,1026.96
2019-05-12T09:22:30.308Z,1026.97
2019-05-12T09:23:32.738Z,1026.86
2019-05-12T09:24:31.243Z,1026.85
2019-05-12T09:25:30.250Z,1026.87
2019-05-12T09:26:30.248Z,1026.90
2019-05-12T09:27:30.229Z,1026.87
2019-05-12T09:28:42.834Z,1026.88
2019-05-12T09:29:31.190Z,1026.89
2019-05-12T09:30:30.180Z,1026.97
2019-05-12T09:31:30.189Z,1026.99
2019-05-12T09:32:30.156Z,1026.97
2019-05-12T09:33:34.103Z,1027.07
2019-05-12T09:34:30.159Z,1027.00
2019-05-12T09:35:34.846Z,1026.97
2019-05-12T09:36:33.606Z,1027.01
2019-05-12T09:37:30.870Z,1026.98
2019-05-12T09:38:33.124Z,1026.90
2019-05-12T09:39:35.369Z,1026.97
2019-05-12T09:40:31.082Z,1026.97
2019-05-12T09:41:34.336Z,1027.01
2019-05-12T09:42:33.001Z,1027.06
2019-05-12T09:43:30.066Z,1026.94
2019-05-12T09:44:30.502Z,1026.95
2019-05-12T09:45:30.025Z,1026.93
2019-05-12T09:46:34.283Z,1026.94
2019-05-12T09:47:30.991Z,1027.01
2019-05-12T09:48:29.991Z,1027.07
2019-05-12T09:49:36.751Z,1027.05
2019-05-12T09:50:30.963Z,1027.06
2019-05-12T09:51:35.234Z,1027.00
2019-05-12T09:52:32.938Z,1027.01
2019-05-12T09:53:29.932Z,1027.01
2019-05-12T09:54:35.589Z,1026.91
2019-05-12T09:55:30.901Z,1026.96
2019-05-12T09:56:29.891Z,1026.97
2019-05-12T09:57:34.724Z,1027.03
2019-05-12T09:58:30.880Z,1026.96
2019-05-12T09:59:29.882Z,1027.06
2019-05-12T10:00:30.315Z,1027.04
2019-05-12T10:01:35.232Z,1027.09
2019-05-12T10:02:30.845Z,1027.10
2019-05-12T10:03:31.010Z,1027.10
2019-05-12T10:04:32.955Z,1027.07
2019-05-12T10:05:30.552Z,1027.07
2019-05-12T10:06:30.782Z,1027.08
2019-05-12T10:07:29.774Z,1027.03
2019-05-12T10:08:35.587Z,1027.14
2019-05-12T10:09:30.793Z,1027.10
2019-05-12T10:10:38.169Z,1027.13
2019-05-12T10:11:30.725Z,1027.20
2019-05-12T10:12:30.172Z,1027.19
2019-05-12T10:13:30.339Z,1027.21
2019-05-12T10:14:29.710Z,1027.20
2019-05-12T10:15:29.698Z,1027.19
2019-05-12T10:16:29.697Z,1027.12
2019-05-12T10:17:30.263Z,1027.13
2019-05-12T10:18:29.647Z,1027.11
2019-05-12T10:19:29.652Z,1027.06
2019-05-12T10:20:35.156Z,1027.10
2019-05-12T10:21:30.633Z,1027.06
2019-05-12T10:22:29.995Z,1027.05
2019-05-12T10:23:30.595Z,1027.06
2019-05-12T10:24:32.760Z,1027.11
2019-05-12T10:25:30.740Z,1027.13
2019-05-12T10:26:29.598Z,1027.08
2019-05-12T10:27:31.935Z,1027.10
2019-05-12T10:28:29.567Z,1027.08
2019-05-12T10:29:31.005Z,1027.09
2019-05-12T10:30:29.518Z,1027.15
2019-05-12T10:31:34.542Z,1027.09
2019-05-12T10:32:30.523Z,1027.13
2019-05-12T10:33:29.532Z,1027.21
2019-05-12T10:34:34.832Z,1027.22
2019-05-12T10:35:30.515Z,1027.10
2019-05-12T10:36:29.454Z,1027.13
2019-05-12T10:37:29.628Z,1027.24
2019-05-12T10:38:29.445Z,1027.05
2019-05-12T10:39:29.431Z,1027.06
2019-05-12T10:40:29.447Z,1027.09
2019-05-12T10:41:29.398Z,1027.06
2019-05-12T10:42:29.384Z,1027.08
2019-05-12T10:43:29.384Z,1027.10
2019-05-12T10:44:37.702Z,1027.12
2019-05-12T10:45:30.367Z,1027.22
2019-05-12T10:46:29.417Z,1027.15
2019-05-12T10:47:29.332Z,1027.13
2019-05-12T10:48:29.319Z,1027.07
2019-05-12T10:49:29.330Z,1027.10
2019-05-12T10:50:29.313Z,1027.11
2019-05-12T10:51:29.300Z,1027.15
2019-05-12T10:52:33.933Z,1027.17
2019-05-12T10:53:30.263Z,1027.13
2019-05-12T10:54:29.256Z,1027.18
2019-05-12T10:55:29.242Z,1027.03
2019-05-12T10:56:29.247Z,1027.14
2019-05-12T10:57:29.218Z,1027.08
2019-05-12T10:58:29.226Z,1027.12
2019-05-12T10:59:33.163Z,1027.09
2019-05-12T11:00:30.187Z,1027.13
2019-05-12T11:01:29.211Z,1027.12
2019-05-12T11:02:30.660Z,1027.09
2019-05-12T11:03:29.176Z,1027.13
2019-05-12T11:04:36.014Z,1027.08
2019-05-12T11:05:30.129Z,1027.13
2019-05-12T11:06:29.145Z,1027.12
2019-05-12T11:07:30.007Z,1027.06
2019-05-12T11:08:29.116Z,1027.03
2019-05-12T11:09:31.670Z,1027.03
2019-05-12T11:10:29.105Z,1027.04
2019-05-12T11:11:32.831Z,1027.05
2019-05-12T11:12:30.051Z,1026.97
2019-05-12T11:13:29.042Z,1026.99
2019-05-12T11:14:30.579Z,1026.99
2019-05-12T11:15:29.032Z,1027.02
2019-05-12T11:16:30.758Z,1027.02
2019-05-12T11:17:29.039Z,1027.06
2019-05-12T11:18:30.554Z,1027.17
2019-05-12T11:19:28.980Z,1027.11
2019-05-12T11:20:28.986Z,1027.18
2019-05-12T11:21:28.976Z,1027.17
2019-05-12T11:22:28.957Z,1027.10
2019-05-12T11:23:28.973Z,1027.06
2019-05-12T11:24:28.921Z,1027.02
2019-05-12T11:25:28.910Z,1027.15
2019-05-12T11:26:28.897Z,1027.08
2019-05-12T11:27:28.901Z,1027.06
2019-05-12T11:28:28.875Z,1027.10
2019-05-12T11:29:41.711Z,1027.05
2019-05-12T11:30:29.854Z,1027.09
2019-05-12T11:31:28.872Z,1027.09
2019-05-12T11:32:34.019Z,1027.10
2019-05-12T11:33:29.840Z,1027.16
2019-05-12T11:34:28.808Z,1027.22
2019-05-12T11:35:36.360Z,1027.26
2019-05-12T11:36:28.932Z,1027.22
2019-05-12T11:37:29.154Z,1027.26
2019-05-12T11:38:28.795Z,1027.27
2019-05-12T11:39:30.608Z,1027.36
2019-05-12T11:40:29.741Z,1027.32
2019-05-12T11:41:28.778Z,1027.32
2019-05-12T11:42:28.724Z,1027.34
2019-05-12T11:43:29.820Z,1027.36
2019-05-12T11:44:28.707Z,1027.33
2019-05-12T11:45:28.690Z,1027.35
2019-05-12T11:46:28.693Z,1027.35
2019-05-12T11:47:28.692Z,1027.37
2019-05-12T11:48:28.651Z,1027.41
2019-05-12T11:49:28.642Z,1027.39
2019-05-12T11:50:28.642Z,1027.40
2019-05-12T11:51:30.490Z,1027.42
2019-05-12T11:52:28.624Z,1027.40
2019-05-12T11:53:31.156Z,1027.41
2019-05-12T11:54:28.593Z,1027.38
2019-05-12T11:55:31.560Z,1027.42
2019-05-12T11:56:28.579Z,1027.45
2019-05-12T11:57:30.314Z,1027.46
2019-05-12T11:58:28.563Z,1027.52
2019-05-12T11:59:28.566Z,1027.46
2019-05-12T12:00:28.522Z,1027.52
2019-05-12T12:01:28.511Z,1027.50
2019-05-12T12:02:30.403Z,1027.53
2019-05-12T12:03:28.494Z,1027.54
2019-05-12T12:04:28.482Z,1027.52
2019-05-12T12:05:28.501Z,1027.48